createdAt,value
2019-04-07T00:00:38.106Z,92.50
2019-04-07T00:03:45.689Z,95.43
2019-04-07T00:06:53.313Z,80.80
2019-04-07T00:10:00.930Z,88.87
2019-04-07T00:13:08.551Z,95.17
2019-04-07T00:16:15.988Z,94.93
2019-04-07T00:19:23.667Z,85.77
2019-04-07T00:22:31.292Z,88.17
2019-04-07T00:25:38.845Z,93.70
2019-04-07T00:28:46.471Z,106.57
2019-04-07T00:31:54.079Z,101.77
2019-04-07T00:35:01.612Z,95.90
2019-04-07T00:38:09.586Z,97.90
2019-04-07T00:41:17.275Z,91.17
2019-04-07T00:44:24.801Z,82.97
2019-04-07T00:47:32.384Z,76.60
2019-04-07T00:50:40.517Z,75.63
2019-04-07T00:53:48.049Z,74.17
2019-04-07T00:56:55.655Z,77.97
2019-04-07T01:00:03.699Z,79.87
2019-04-07T01:03:14.043Z,74.60
2019-04-07T01:06:21.904Z,67.37
2019-04-07T01:09:29.919Z,73.27
2019-04-07T01:12:38.392Z,76.17
2019-04-07T01:15:46.160Z,76.03
2019-04-07T01:18:53.723Z,73.10
2019-04-07T01:22:01.169Z,74.70
2019-04-07T01:25:08.984Z,80.70
2019-04-07T01:28:16.576Z,78.70
2019-04-07T01:31:24.197Z,77.77
2019-04-07T01:34:32.814Z,88.47
2019-04-07T01:37:40.656Z,90.67
2019-04-07T01:40:57.896Z,88.90
2019-04-07T01:44:13.796Z,86.67
2019-04-07T01:47:28.847Z,88.00
2019-04-07T01:51:04.493Z,91.37
2019-04-07T01:54:29.461Z,83.77
2019-04-07T01:57:57.201Z,91.27
2019-04-07T02:01:31.113Z,90.67
2019-04-07T02:04:51.168Z,95.37
2019-04-07T02:08:24.765Z,92.80
2019-04-07T02:11:54.088Z,101.37
2019-04-07T02:15:26.787Z,104.47
2019-04-07T02:18:54.285Z,106.10
2019-04-07T02:22:26.605Z,99.67
2019-04-07T02:25:45.417Z,106.40
2019-04-07T02:29:01.953Z,99.93
2019-04-07T02:32:29.733Z,93.87
2019-04-07T02:36:12.201Z,91.87
2019-04-07T02:39:21.492Z,85.97
2019-04-07T02:42:54.395Z,94.07
2019-04-07T02:46:20.784Z,92.33
2019-04-07T02:49:50.124Z,91.97
2019-04-07T02:53:31.538Z,86.73
2019-04-07T02:57:00.518Z,96.50
2019-04-07T03:00:16.017Z,91.53
2019-04-07T03:03:46.364Z,96.70
2019-04-07T03:07:21.881Z,95.70
2019-04-07T03:10:40.949Z,94.77
2019-04-07T03:13:54.069Z,93.47
2019-04-07T03:17:06.747Z,100.03
2019-04-07T03:20:32.463Z,98.07
2019-04-07T03:24:00.938Z,96.67
2019-04-07T03:27:27.144Z,91.97
2019-04-07T03:30:59.793Z,77.33
2019-04-07T03:34:22.672Z,75.17
2019-04-07T03:37:48.165Z,72.97
2019-04-07T03:41:00.397Z,73.03
2019-04-07T03:44:29.735Z,64.87
2019-04-07T03:47:59.017Z,64.77
2019-04-07T03:51:21.077Z,66.10
2019-04-07T03:54:50.846Z,65.80
2019-04-07T03:58:21.354Z,60.10
2019-04-07T04:01:47.739Z,61.17
2019-04-07T04:05:01.002Z,63.73
2019-04-07T04:08:18.640Z,59.67
2019-04-07T04:11:57.047Z,57.30
2019-04-07T04:15:18.366Z,57.77
2019-04-07T04:18:26.327Z,53.60
2019-04-07T04:21:33.874Z,51.20
2019-04-07T04:24:42.168Z,46.67
2019-04-07T04:27:50.659Z,53.70
2019-04-07T04:30:58.566Z,49.27
2019-04-07T04:34:06.255Z,48.47
2019-04-07T04:37:14.761Z,48.80
2019-04-07T04:40:24.186Z,44.90
2019-04-07T04:43:31.860Z,44.80
2019-04-07T04:46:39.382Z,44.80
2019-04-07T04:49:46.801Z,40.87
2019-04-07T04:52:54.609Z,41.00
2019-04-07T04:56:02.905Z,44.63
2019-04-07T04:59:11.388Z,42.07
2019-04-07T05:02:19.066Z,42.27
2019-04-07T05:05:26.513Z,41.20
2019-04-07T05:08:34.093Z,40.50
2019-04-07T05:11:41.786Z,41.87
2019-04-07T05:14:49.349Z,38.57
2019-04-07T05:17:57.301Z,40.30
2019-04-07T05:21:05.258Z,38.70
2019-04-07T05:24:12.776Z,37.90
2019-04-07T05:27:20.327Z,39.33
2019-04-07T05:30:29.245Z,44.70
2019-04-07T05:33:37.105Z,47.80
2019-04-07T05:36:44.487Z,38.60
2019-04-07T05:39:52.593Z,38.77
2019-04-07T05:43:00.774Z,36.50
2019-04-07T05:46:09.068Z,36.50
2019-04-07T05:49:17.821Z,35.13
2019-04-07T05:52:25.656Z,39.37
2019-04-07T05:55:33.435Z,52.77
2019-04-07T05:58:42.706Z,50.77
2019-04-07T06:01:52.506Z,61.77
2019-04-07T06:05:00.366Z,49.50
2019-04-07T06:08:22.463Z,52.70
2019-04-07T06:11:17.927Z,41.27
2019-04-07T06:14:26.826Z,37.20
2019-04-07T06:17:34.668Z,39.87
2019-04-07T06:20:44.116Z,37.23
2019-04-07T06:23:55.304Z,41.70
2019-04-07T06:27:00.870Z,34.67
2019-04-07T06:30:12.065Z,37.13
2019-04-07T06:33:19.925Z,34.53
2019-04-07T06:36:28.761Z,31.83
2019-04-07T06:39:36.237Z,30.77
2019-04-07T06:42:45.674Z,32.67
2019-04-07T06:46:02.910Z,59.20
2019-04-07T06:49:28.814Z,28.53
2019-04-07T06:52:58.887Z,22.13
2019-04-07T06:56:35.521Z,23.53
2019-04-07T07:00:17.442Z,33.67
2019-04-07T07:03:58.546Z,28.57
2019-04-07T07:07:16.761Z,31.47
2019-04-07T07:10:46.764Z,30.20
2019-04-07T07:14:14.938Z,30.43
2019-04-07T07:17:59.014Z,32.20
2019-04-07T07:21:36.213Z,20.97
2019-04-07T07:24:42.803Z,17.87
2019-04-07T07:27:51.219Z,19.10
2019-04-07T07:31:00.082Z,20.07
2019-04-07T07:34:09.343Z,23.97
2019-04-07T07:37:16.666Z,17.40
2019-04-07T07:40:24.258Z,17.03
2019-04-07T07:43:31.924Z,17.60
2019-04-07T07:46:40.401Z,19.50
2019-04-07T07:49:55.073Z,22.80
2019-04-07T07:53:10.336Z,25.60
2019-04-07T07:56:18.195Z,25.80
2019-04-07T07:59:31.695Z,26.73
2019-04-07T08:02:39.002Z,25.40
2019-04-07T08:05:48.650Z,27.60
2019-04-07T08:09:10.415Z,27.87
2019-04-07T08:12:11.626Z,30.30
2019-04-07T08:15:23.520Z,28.50
2019-04-07T08:18:29.590Z,28.80
2019-04-07T08:21:38.032Z,26.73
2019-04-07T08:24:49.310Z,27.07
2019-04-07T08:27:56.511Z,28.13
2019-04-07T08:31:04.415Z,29.23
2019-04-07T08:34:13.316Z,28.23
2019-04-07T08:37:21.893Z,23.50
2019-04-07T08:40:30.921Z,29.13
2019-04-07T08:43:42.008Z,28.83
2019-04-07T08:46:55.314Z,27.30
2019-04-07T08:50:04.907Z,28.73
2019-04-07T08:53:14.088Z,30.30
2019-04-07T08:56:26.260Z,28.37
2019-04-07T08:59:33.013Z,26.17
2019-04-07T09:02:41.680Z,26.80
2019-04-07T09:05:50.308Z,25.50
2019-04-07T09:08:57.966Z,24.23
2019-04-07T09:12:06.057Z,26.80
2019-04-07T09:15:19.166Z,26.37
2019-04-07T09:18:55.003Z,27.20
2019-04-07T09:22:25.217Z,23.80
2019-04-07T09:25:41.083Z,24.67
2019-04-07T09:28:57.430Z,23.00
2019-04-07T09:32:25.367Z,28.07
2019-04-07T09:35:58.751Z,29.37
2019-04-07T09:39:31.452Z,26.17
2019-04-07T09:43:01.603Z,25.60
2019-04-07T09:46:20.303Z,28.50
2019-04-07T09:49:36.603Z,30.60
2019-04-07T09:53:10.418Z,31.53
2019-04-07T09:56:32.838Z,27.80
2019-04-07T10:00:06.707Z,27.30
2019-04-07T10:03:39.937Z,31.80
2019-04-07T10:07:09.218Z,33.37
2019-04-07T10:10:38.318Z,29.43
2019-04-07T10:14:06.700Z,29.60
2019-04-07T10:17:27.726Z,32.50
2019-04-07T10:20:55.842Z,31.57
2019-04-07T10:24:28.084Z,34.67
2019-04-07T10:27:54.546Z,35.07
2019-04-07T10:31:20.986Z,39.40
2019-04-07T10:34:41.182Z,43.50
2019-04-07T10:38:10.992Z,48.20
2019-04-07T10:41:32.718Z,40.47
2019-04-07T10:45:02.544Z,47.27
2019-04-07T10:48:49.929Z,45.80
2019-04-07T10:52:12.000Z,41.33
2019-04-07T10:55:34.097Z,46.63
2019-04-07T10:58:59.446Z,45.40
2019-04-07T11:02:27.645Z,43.93
2019-04-07T11:06:09.132Z,41.77
2019-04-07T11:09:44.990Z,40.27
2019-04-07T11:13:16.847Z,40.43
2019-04-07T11:16:48.673Z,39.43
2019-04-07T11:20:20.549Z,40.00
2019-04-07T11:23:40.373Z,42.60
2019-04-07T11:27:06.950Z,41.03
2019-04-07T11:30:39.910Z,43.40
2019-04-07T11:34:01.786Z,43.00
2019-04-07T11:37:18.967Z,42.17
2019-04-07T11:40:51.028Z,39.93
2019-04-07T11:44:05.350Z,43.57
2019-04-07T11:47:27.621Z,42.90
2019-04-07T11:50:57.611Z,43.30
2019-04-07T11:54:27.483Z,42.60
2019-04-07T11:57:43.288Z,43.90
2019-04-07T12:01:14.275Z,50.23
2019-04-07T12:04:47.754Z,52.10
2019-04-07T12:08:13.922Z,43.40
2019-04-07T12:11:28.814Z,42.17
2019-04-07T12:15:05.280Z,43.37
2019-04-07T12:18:24.887Z,46.10
2019-04-07T12:21:49.781Z,44.40
2019-04-07T12:25:15.767Z,44.67
2019-04-07T12:28:42.351Z,41.37
2019-04-07T12:32:20.227Z,41.60
2019-04-07T12:35:45.827Z,42.43
2019-04-07T12:39:17.329Z,41.73
2019-04-07T12:42:42.928Z,43.70
2019-04-07T12:46:14.498Z,42.83
2019-04-07T12:49:44.388Z,40.60
2019-04-07T12:53:09.741Z,41.10
2019-04-07T12:56:46.740Z,42.57
2019-04-07T13:00:22.532Z,41.17
2019-04-07T13:03:50.129Z,42.07
2019-04-07T13:07:19.769Z,41.80
2019-04-07T13:11:09.689Z,42.37
2019-04-07T13:14:38.595Z,43.70
2019-04-07T13:18:05.251Z,41.40
2019-04-07T13:21:34.958Z,43.10
2019-04-07T13:24:49.776Z,38.03
2019-04-07T13:28:26.044Z,36.80
2019-04-07T13:31:42.814Z,37.80
2019-04-07T13:35:09.108Z,35.43
2019-04-07T13:38:42.468Z,32.43
2019-04-07T13:42:08.839Z,31.40
2019-04-07T13:45:26.636Z,31.77
2019-04-07T13:49:00.767Z,32.27
2019-04-07T13:52:38.481Z,36.20
2019-04-07T13:56:03.926Z,33.53
2019-04-07T13:59:33.793Z,34.80
2019-04-07T14:02:58.967Z,36.43
2019-04-07T14:06:15.070Z,34.00
2019-04-07T14:09:32.106Z,36.83
2019-04-07T14:13:06.070Z,33.30
2019-04-07T14:16:35.396Z,32.97
2019-04-07T14:20:11.408Z,34.30
2019-04-07T14:23:39.249Z,32.27
2019-04-07T14:27:13.142Z,30.80
2019-04-07T14:30:38.234Z,34.57
2019-04-07T14:34:05.436Z,33.43
2019-04-07T14:37:38.343Z,29.90
2019-04-07T14:41:01.040Z,28.90
2019-04-07T14:44:30.713Z,26.80
2019-04-07T14:47:44.664Z,30.10
2019-04-07T14:51:10.119Z,28.33
2019-04-07T14:54:35.156Z,29.60
2019-04-07T14:58:01.275Z,30.73
2019-04-07T15:01:34.736Z,30.60
2019-04-07T15:04:47.733Z,29.50
2019-04-07T15:08:20.480Z,29.60
2019-04-07T15:11:47.210Z,26.03
2019-04-07T15:14:54.715Z,24.50
2019-04-07T15:18:03.625Z,27.47
2019-04-07T15:21:11.414Z,28.40
2019-04-07T15:24:19.784Z,27.07
2019-04-07T15:27:29.404Z,26.00
2019-04-07T15:30:37.328Z,27.20
2019-04-07T15:33:45.524Z,27.90
2019-04-07T15:36:53.409Z,27.70
2019-04-07T15:40:03.630Z,27.40
2019-04-07T15:43:11.378Z,23.80
2019-04-07T15:46:20.882Z,23.00
2019-04-07T15:49:29.494Z,23.63
2019-04-07T15:52:37.252Z,23.30
2019-04-07T15:55:52.658Z,23.90
2019-04-07T15:58:58.069Z,25.50
2019-04-07T16:02:08.483Z,21.77
2019-04-07T16:05:15.924Z,20.93
2019-04-07T16:08:26.689Z,22.83
2019-04-07T16:11:34.888Z,24.33
2019-04-07T16:14:46.468Z,23.47
2019-04-07T16:17:52.968Z,26.20
2019-04-07T16:21:02.859Z,27.80
2019-04-07T16:24:09.829Z,28.53
2019-04-07T16:27:17.376Z,29.90
2019-04-07T16:30:25.875Z,33.37
2019-04-07T16:33:35.216Z,37.70
2019-04-07T16:36:43.345Z,40.80
2019-04-07T16:39:51.344Z,39.77
2019-04-07T16:43:07.709Z,31.73
2019-04-07T16:46:08.869Z,29.37
2019-04-07T16:49:18.675Z,31.40
2019-04-07T16:52:28.552Z,28.93
2019-04-07T16:55:39.960Z,29.53
2019-04-07T16:58:47.880Z,29.60
2019-04-07T17:01:55.576Z,32.23
2019-04-07T17:05:03.015Z,32.17
2019-04-07T17:08:12.876Z,32.87
2019-04-07T17:11:20.492Z,35.00
2019-04-07T17:14:31.926Z,39.67
2019-04-07T17:17:37.277Z,42.00
2019-04-07T17:20:44.922Z,42.00
2019-04-07T17:23:55.446Z,41.67
2019-04-07T17:27:03.060Z,43.20
2019-04-07T17:30:14.748Z,38.90
2019-04-07T17:33:23.223Z,40.23
2019-04-07T17:36:31.083Z,41.70
2019-04-07T17:39:51.367Z,38.53
2019-04-07T17:43:13.747Z,35.10
2019-04-07T17:46:36.163Z,33.37
2019-04-07T17:50:02.298Z,44.90
2019-04-07T17:53:18.111Z,85.40
2019-04-07T17:56:53.873Z,93.23
2019-04-07T18:00:32.472Z,125.00
2019-04-07T18:03:54.065Z,89.47
2019-04-07T18:07:17.459Z,49.97
2019-04-07T18:10:43.350Z,30.30
2019-04-07T18:14:04.226Z,32.53
2019-04-07T18:17:30.035Z,36.23
2019-04-07T18:21:13.401Z,31.97
2019-04-07T18:24:29.544Z,30.77
2019-04-07T18:27:53.995Z,29.30
2019-04-07T18:31:13.493Z,29.43
2019-04-07T18:34:33.959Z,33.07
2019-04-07T18:37:55.821Z,26.03
2019-04-07T18:41:20.832Z,29.93
2019-04-07T18:44:46.666Z,25.87
2019-04-07T18:48:16.800Z,24.23
2019-04-07T18:52:04.326Z,30.25
2019-04-07T18:55:22.435Z,30.37
2019-04-07T18:58:54.716Z,48.67
2019-04-07T19:02:21.495Z,34.27
2019-04-07T19:05:40.579Z,29.70
2019-04-07T19:09:06.834Z,28.50
2019-04-07T19:12:38.495Z,25.97
2019-04-07T19:16:19.536Z,31.20
2019-04-07T19:19:49.416Z,25.07
2019-04-07T19:23:26.290Z,28.60
2019-04-07T19:26:54.315Z,26.83
2019-04-07T19:30:17.915Z,26.63
2019-04-07T19:33:57.841Z,28.03
2019-04-07T19:37:19.611Z,28.50
2019-04-07T19:40:49.199Z,26.50
2019-04-07T19:44:17.528Z,25.47
2019-04-07T19:47:44.550Z,29.30
2019-04-07T19:51:17.736Z,28.03
2019-04-07T19:54:47.041Z,33.20
2019-04-07T19:58:17.616Z,35.23
2019-04-07T20:01:44.384Z,34.70
2019-04-07T20:05:10.211Z,30.57
2019-04-07T20:08:45.838Z,30.60
2019-04-07T20:12:21.400Z,32.33
2019-04-07T20:15:43.096Z,30.57
2019-04-07T20:19:28.941Z,33.97
2019-04-07T20:22:56.927Z,36.07
2019-04-07T20:26:18.604Z,37.40
2019-04-07T20:29:32.865Z,41.33
2019-04-07T20:32:51.402Z,36.93
2019-04-07T20:36:23.370Z,39.37
2019-04-07T20:39:44.751Z,34.10
2019-04-07T20:43:08.963Z,33.53
2019-04-07T20:46:31.632Z,33.20
2019-04-07T20:50:12.508Z,33.40
2019-04-07T20:53:38.600Z,35.70
2019-04-07T20:57:05.047Z,33.23
2019-04-07T21:00:30.654Z,32.63
2019-04-07T21:03:53.058Z,30.80
2019-04-07T21:07:18.563Z,30.63
2019-04-07T21:10:45.621Z,27.50
2019-04-07T21:14:10.130Z,27.67
2019-04-07T21:17:23.928Z,26.03
2019-04-07T21:20:44.724Z,27.30
2019-04-07T21:24:18.222Z,27.70
2019-04-07T21:27:34.767Z,27.17
2019-04-07T21:31:06.470Z,28.60
2019-04-07T21:34:23.957Z,29.53
2019-04-07T21:38:02.950Z,28.37
2019-04-07T21:41:32.770Z,31.23
2019-04-07T21:44:48.775Z,31.43
2019-04-07T21:48:28.684Z,41.23
2019-04-07T21:52:02.541Z,39.00
2019-04-07T21:55:37.213Z,41.67
2019-04-07T21:58:56.909Z,40.10
2019-04-07T22:02:17.436Z,39.07
2019-04-07T22:05:31.141Z,37.67
2019-04-07T22:08:45.304Z,36.77
2019-04-07T22:11:54.604Z,32.50
2019-04-07T22:15:02.331Z,31.87
2019-04-07T22:18:11.193Z,32.60
2019-04-07T22:21:22.301Z,32.50
2019-04-07T22:24:33.980Z,33.00
2019-04-07T22:27:38.900Z,32.43
2019-04-07T22:30:46.737Z,34.67
2019-04-07T22:33:57.247Z,33.00
2019-04-07T22:37:04.790Z,38.43
2019-04-07T22:40:17.197Z,39.70
2019-04-07T22:43:24.998Z,38.53
2019-04-07T22:46:33.149Z,40.70
2019-04-07T22:49:41.485Z,39.20
2019-04-07T22:52:50.822Z,37.20
2019-04-07T22:55:59.080Z,38.17
2019-04-07T22:59:09.066Z,34.20
2019-04-07T23:02:16.016Z,38.20
2019-04-07T23:05:24.470Z,35.40
2019-04-07T23:08:32.791Z,35.87
2019-04-07T23:11:40.480Z,36.17
2019-04-07T23:14:47.994Z,38.17
2019-04-07T23:17:55.647Z,41.00
2019-04-07T23:21:03.230Z,42.10
2019-04-07T23:24:10.950Z,42.30
2019-04-07T23:27:20.067Z,42.47
2019-04-07T23:30:29.023Z,43.40
2019-04-07T23:33:36.558Z,43.10
2019-04-07T23:36:44.085Z,43.00
2019-04-07T23:39:51.692Z,42.00
2019-04-07T23:42:59.151Z,43.37
2019-04-07T23:46:18.756Z,44.93
2019-04-07T23:49:15.862Z,43.83
2019-04-07T23:52:23.353Z,43.60
2019-04-07T23:55:31.585Z,46.77
2019-04-07T23:58:39.216Z,44.80
